Time;durP1;ratioP1;P1;durP2;ratioP2;P2;SDS_P1;SDS_P2;PMS_P1;PMS_P2;Temp;Humidity;BMP_temperature;BMP_pressure;BME280_temperature;BME280_humidity;BME280_pressure;Samples;Min_cycle;Max_cycle;Signal;HPM_P1;HPM_P2
2022/07/13 00:00:03;;;;;;;9.98;5.65;;;;;;;;;;4975280;28;20367;-74
2022/07/13 00:02:29;;;;;;;7.38;6.13;;;;;;;;;;4979054;28;20033;-74
2022/07/13 00:04:55;;;;;;;9.45;5.68;;;;;;;;;;4986870;28;20466;-74
2022/07/13 00:07:21;;;;;;;6.95;5.00;;;;;;;;;;4996447;28;20030;-74
2022/07/13 00:09:47;;;;;;;6.80;5.78;;;;;;;;;;4992582;28;20057;-74
2022/07/13 00:12:13;;;;;;;5.97;5.38;;;;;;;;;;4966729;28;20034;-73
2022/07/13 00:14:39;;;;;;;13.82;5.72;;;;;;;;;;4990775;28;20036;-73
2022/07/13 00:17:05;;;;;;;9.07;5.68;;;;;;;;;;4966618;28;20038;-73
2022/07/13 00:19:31;;;;;;;7.75;5.18;;;;;;;;;;4986431;28;20038;-73
2022/07/13 00:21:57;;;;;;;12.07;6.28;;;;;;;;;;4979712;28;20042;-75
2022/07/13 00:24:24;;;;;;;8.82;5.93;;;;;;;;;;4992194;28;20034;-74
2022/07/13 00:26:50;;;;;;;7.57;5.35;;;;;;;;;;4992758;28;20035;-74
2022/07/13 00:29:16;;;;;;;6.55;5.75;;;;;;;;;;4987211;28;20120;-73
2022/07/13 00:31:42;;;;;;;8.05;5.72;;;;;;;;;;4966373;28;20047;-76
2022/07/13 00:34:08;;;;;;;10.27;5.55;;;;;;;;;;4972258;28;20069;-74
2022/07/13 00:36:35;;;;;;;7.68;5.50;;;;;;;;;;4991270;28;20036;-74
2022/07/13 00:39:01;;;;;;;8.85;5.72;;;;;;;;;;4987301;28;20045;-76
2022/07/13 00:41:27;;;;;;;9.38;5.97;;;;;;;;;;4988662;28;20034;-74
2022/07/13 00:43:53;;;;;;;8.90;6.20;;;;;;;;;;4990243;28;20164;-74
2022/07/13 00:46:20;;;;;;;5.95;5.38;;;;;;;;;;4988572;28;20030;-74
2022/07/13 00:48:46;;;;;;;8.07;5.65;;;;;;;;;;4988975;28;20371;-74
2022/07/13 00:51:12;;;;;;;9.00;5.78;;;;;;;;;;4990571;28;20412;-73
2022/07/13 00:53:39;;;;;;;7.18;5.45;;;;;;;;;;4986162;28;20387;-74
2022/07/13 00:56:06;;;;;;;7.45;6.18;;;;;;;;;;4984538;28;20101;-74
2022/07/13 00:58:32;;;;;;;8.88;6.07;;;;;;;;;;4985694;28;20057;-73
2022/07/13 01:00:58;;;;;;;8.85;5.90;;;;;;;;;;4991009;28;20034;-74
2022/07/13 01:03:25;;;;;;;8.75;5.60;;;;;;;;;;4986405;28;20031;-74
2022/07/13 01:05:53;;;;;;;7.32;6.03;;;;;;;;;;4988140;28;20137;-74
2022/07/13 01:08:20;;;;;;;7.03;5.68;;;;;;;;;;4989959;28;20065;-74
2022/07/13 01:10:47;;;;;;;9.75;6.35;;;;;;;;;;4973267;28;20062;-74
2022/07/13 01:13:16;;;;;;;8.18;6.30;;;;;;;;;;4980573;28;20026;-73
2022/07/13 01:15:42;;;;;;;8.55;5.72;;;;;;;;;;4983344;28;20031;-74
2022/07/13 01:18:12;;;;;;;8.70;6.40;;;;;;;;;;4981146;28;20038;-74
2022/07/13 01:20:38;;;;;;;10.45;6.20;;;;;;;;;;4980084;28;20109;-74
2022/07/13 01:23:10;;;;;;;9.40;6.07;;;;;;;;;;4982307;28;20037;-74
2022/07/13 01:25:36;;;;;;;8.40;6.18;;;;;;;;;;4986052;28;20038;-74
2022/07/13 01:28:02;;;;;;;6.80;6.15;;;;;;;;;;4988034;28;20041;-74
2022/07/13 01:30:28;;;;;;;9.60;6.28;;;;;;;;;;4975259;28;20038;-74
2022/07/13 01:32:54;;;;;;;6.75;6.05;;;;;;;;;;4971874;28;20039;-74
2022/07/13 01:35:21;;;;;;;8.63;6.40;;;;;;;;;;4985299;28;20058;-74
2022/07/13 01:37:47;;;;;;;10.23;6.03;;;;;;;;;;4983749;28;20084;-74
2022/07/13 01:40:15;;;;;;;10.52;5.30;;;;;;;;;;4994641;28;20046;-73
2022/07/13 01:42:42;;;;;;;9.77;6.90;;;;;;;;;;4971076;28;20042;-73
2022/07/13 01:45:09;;;;;;;7.65;6.45;;;;;;;;;;4985544;28;20466;-74
2022/07/13 01:47:38;;;;;;;6.80;6.10;;;;;;;;;;4989381;28;20034;-74
2022/07/13 01:50:05;;;;;;;9.77;6.30;;;;;;;;;;4972223;28;20522;-75
2022/07/13 01:52:31;;;;;;;6.85;6.10;;;;;;;;;;4981114;28;20050;-73
2022/07/13 01:54:57;;;;;;;10.70;6.80;;;;;;;;;;4995942;28;20031;-74
2022/07/13 01:57:23;;;;;;;8.02;6.53;;;;;;;;;;4988200;28;20026;-74
2022/07/13 01:59:49;;;;;;;8.75;7.40;;;;;;;;;;4994635;28;20026;-74
2022/07/13 02:02:15;;;;;;;7.25;6.55;;;;;;;;;;4981197;28;21287;-74
2022/07/13 02:04:41;;;;;;;7.20;6.50;;;;;;;;;;4988519;28;20100;-73
2022/07/13 02:07:07;;;;;;;8.20;7.28;;;;;;;;;;4992778;28;20479;-75
2022/07/13 02:09:33;;;;;;;8.45;7.60;;;;;;;;;;4992392;28;20096;-76
2022/07/13 02:11:59;;;;;;;7.65;6.85;;;;;;;;;;4995310;28;20125;-73
2022/07/13 02:14:25;;;;;;;7.93;7.10;;;;;;;;;;4975438;28;20038;-73
2022/07/13 02:16:51;;;;;;;11.38;6.85;;;;;;;;;;4980762;28;20038;-74
2022/07/13 02:19:18;;;;;;;8.02;6.82;;;;;;;;;;4981283;28;20034;-74
2022/07/13 02:21:46;;;;;;;7.45;6.70;;;;;;;;;;4992298;28;20050;-74
2022/07/13 02:24:12;;;;;;;6.88;6.18;;;;;;;;;;4991997;28;20109;-73
2022/07/13 02:26:38;;;;;;;9.02;6.40;;;;;;;;;;4993032;28;20027;-73
2022/07/13 02:29:04;;;;;;;9.07;7.22;;;;;;;;;;4975625;28;20039;-74
2022/07/13 02:31:30;;;;;;;8.60;6.88;;;;;;;;;;4992020;28;20045;-73
2022/07/13 02:33:56;;;;;;;8.00;6.43;;;;;;;;;;4975434;28;20065;-73
2022/07/13 02:36:22;;;;;;;7.03;6.40;;;;;;;;;;4990540;28;20049;-74
2022/07/13 02:38:48;;;;;;;12.48;7.40;;;;;;;;;;4960985;28;20038;-73
2022/07/13 02:41:14;;;;;;;11.60;7.35;;;;;;;;;;4989612;28;20192;-73
2022/07/13 02:43:40;;;;;;;8.80;7.60;;;;;;;;;;4988875;28;20031;-73
2022/07/13 02:46:07;;;;;;;10.23;8.07;;;;;;;;;;4988266;28;20041;-74
2022/07/13 02:48:33;;;;;;;11.52;7.30;;;;;;;;;;4974258;28;20093;-74
2022/07/13 02:50:59;;;;;;;13.25;7.32;;;;;;;;;;4989638;28;20034;-73
2022/07/13 02:53:26;;;;;;;13.30;8.15;;;;;;;;;;4991896;28;20043;-73
2022/07/13 02:55:52;;;;;;;7.88;7.18;;;;;;;;;;4991530;28;20081;-75
2022/07/13 02:58:18;;;;;;;8.80;7.90;;;;;;;;;;4988756;28;20031;-73
2022/07/13 03:00:44;;;;;;;10.63;7.95;;;;;;;;;;4984735;28;20045;-75
2022/07/13 03:03:10;;;;;;;12.10;7.70;;;;;;;;;;4991943;28;20260;-76
2022/07/13 03:05:36;;;;;;;9.13;7.60;;;;;;;;;;4991693;28;20034;-73
2022/07/13 03:08:02;;;;;;;8.65;7.78;;;;;;;;;;4991576;28;20073;-77
2022/07/13 03:10:28;;;;;;;9.48;7.75;;;;;;;;;;4988335;28;20053;-73
2022/07/13 03:12:55;;;;;;;15.00;8.05;;;;;;;;;;4988356;28;20483;-74
2022/07/13 03:15:21;;;;;;;10.25;7.15;;;;;;;;;;4972628;28;20057;-73
2022/07/13 03:17:47;;;;;;;9.50;7.32;;;;;;;;;;4993232;28;20033;-74
2022/07/13 03:20:13;;;;;;;7.82;7.03;;;;;;;;;;4980678;28;20042;-73
2022/07/13 03:22:39;;;;;;;16.23;7.50;;;;;;;;;;4988676;28;20058;-73
2022/07/13 03:25:06;;;;;;;8.68;6.90;;;;;;;;;;4990541;28;20378;-73
2022/07/13 03:27:32;;;;;;;10.80;7.97;;;;;;;;;;4973640;28;20030;-73
2022/07/13 03:29:58;;;;;;;9.77;7.50;;;;;;;;;;4988429;28;20037;-74
2022/07/13 03:32:24;;;;;;;11.27;8.68;;;;;;;;;;4993118;28;20038;-74
2022/07/13 03:34:50;;;;;;;12.70;7.78;;;;;;;;;;4988129;28;20023;-74
2022/07/13 03:37:16;;;;;;;10.68;7.97;;;;;;;;;;4989616;28;20022;-74
2022/07/13 03:39:42;;;;;;;8.68;7.78;;;;;;;;;;4989579;28;20043;-74
2022/07/13 03:42:08;;;;;;;12.52;7.95;;;;;;;;;;4975859;28;20113;-74
2022/07/13 03:44:34;;;;;;;15.73;7.80;;;;;;;;;;4985867;28;20034;-74
2022/07/13 03:47:00;;;;;;;9.32;8.30;;;;;;;;;;4987791;28;20042;-73
2022/07/13 03:49:27;;;;;;;11.38;7.57;;;;;;;;;;4972583;28;20497;-73
2022/07/13 03:51:53;;;;;;;10.85;8.13;;;;;;;;;;4990112;28;20398;-74
2022/07/13 03:54:19;;;;;;;8.43;7.63;;;;;;;;;;4984943;28;20370;-74
2022/07/13 03:56:45;;;;;;;8.13;7.32;;;;;;;;;;4989801;28;20085;-74
2022/07/13 03:59:11;;;;;;;9.65;8.38;;;;;;;;;;4988769;28;20509;-74
2022/07/13 04:01:37;;;;;;;10.80;8.75;;;;;;;;;;4989277;28;20034;-74
2022/07/13 04:04:03;;;;;;;10.38;8.68;;;;;;;;;;4987569;28;20110;-75
2022/07/13 04:06:30;;;;;;;9.15;8.07;;;;;;;;;;4991468;28;20121;-74
2022/07/13 04:08:56;;;;;;;9.20;7.85;;;;;;;;;;4990223;28;20518;-74
2022/07/13 04:11:22;;;;;;;11.18;8.80;;;;;;;;;;4986682;28;20474;-74
2022/07/13 04:13:48;;;;;;;9.52;8.50;;;;;;;;;;4980909;28;20035;-74
2022/07/13 04:16:14;;;;;;;8.98;7.63;;;;;;;;;;4984540;28;20030;-74
2022/07/13 04:18:40;;;;;;;10.23;9.10;;;;;;;;;;4983850;28;20046;-74
2022/07/13 04:21:07;;;;;;;10.43;7.78;;;;;;;;;;4990584;28;20426;-74
2022/07/13 04:23:33;;;;;;;10.52;8.05;;;;;;;;;;4973952;28;20123;-74
2022/07/13 04:25:59;;;;;;;9.48;7.93;;;;;;;;;;4986617;28;20030;-74
2022/07/13 04:28:25;;;;;;;9.25;8.25;;;;;;;;;;4966698;28;20035;-74
2022/07/13 04:30:52;;;;;;;10.05;8.43;;;;;;;;;;4966918;28;20133;-74
2022/07/13 04:33:18;;;;;;;9.90;8.20;;;;;;;;;;4956719;28;20069;-74
2022/07/13 04:35:44;;;;;;;11.70;8.07;;;;;;;;;;4964972;28;20038;-74
2022/07/13 04:38:10;;;;;;;8.63;7.82;;;;;;;;;;4976346;28;20025;-74
2022/07/13 04:40:36;;;;;;;11.20;8.50;;;;;;;;;;4972925;28;20042;-74
2022/07/13 04:43:03;;;;;;;11.82;8.40;;;;;;;;;;4988842;28;20026;-76
2022/07/13 04:45:30;;;;;;;11.50;8.23;;;;;;;;;;4962043;28;20038;-74
2022/07/13 04:47:56;;;;;;;10.55;7.32;;;;;;;;;;4980827;28;20030;-74
2022/07/13 04:50:22;;;;;;;8.35;7.45;;;;;;;;;;4987089;28;20124;-71
2022/07/13 04:52:49;;;;;;;13.23;7.70;;;;;;;;;;4981772;28;20034;-71
2022/07/13 04:55:16;;;;;;;9.10;7.20;;;;;;;;;;4985314;28;20073;-71
2022/07/13 04:57:42;;;;;;;11.27;8.38;;;;;;;;;;4990562;28;20039;-72
2022/07/13 05:00:09;;;;;;;14.10;8.30;;;;;;;;;;4956383;28;20038;-72
2022/07/13 05:02:35;;;;;;;10.18;8.40;;;;;;;;;;4976072;28;20502;-70
2022/07/13 05:05:01;;;;;;;7.97;7.22;;;;;;;;;;4983054;28;20038;-69
2022/07/13 05:07:28;;;;;;;8.43;7.63;;;;;;;;;;4992039;28;20061;-69
2022/07/13 05:09:55;;;;;;;11.15;7.68;;;;;;;;;;4977132;28;20486;-71
2022/07/13 05:12:21;;;;;;;9.65;8.02;;;;;;;;;;4989036;28;20034;-71
2022/07/13 05:14:47;;;;;;;8.90;7.63;;;;;;;;;;4993826;28;20035;-70
2022/07/13 05:17:13;;;;;;;8.90;7.10;;;;;;;;;;4991679;28;20049;-73
2022/07/13 05:19:39;;;;;;;8.63;7.47;;;;;;;;;;4972494;28;20069;-73
2022/07/13 05:22:07;;;;;;;8.75;7.88;;;;;;;;;;4985879;28;20086;-74
2022/07/13 05:24:33;;;;;;;9.95;8.07;;;;;;;;;;4970282;28;20058;-73
2022/07/13 05:26:59;;;;;;;7.80;6.90;;;;;;;;;;4991211;28;20157;-72
2022/07/13 05:29:25;;;;;;;9.27;7.50;;;;;;;;;;4988787;28;20109;-73
2022/07/13 05:31:51;;;;;;;10.13;6.88;;;;;;;;;;4988390;28;20038;-73
2022/07/13 05:34:17;;;;;;;10.50;7.50;;;;;;;;;;4972128;28;20041;-73
2022/07/13 05:36:43;;;;;;;9.05;7.22;;;;;;;;;;4986426;28;20035;-75
2022/07/13 05:39:09;;;;;;;8.45;6.82;;;;;;;;;;4991189;28;20042;-74
2022/07/13 05:41:35;;;;;;;10.52;7.35;;;;;;;;;;4989705;28;20031;-76
2022/07/13 05:44:01;;;;;;;11.13;7.18;;;;;;;;;;4994183;28;20046;-76
2022/07/13 05:46:27;;;;;;;11.85;6.88;;;;;;;;;;4984750;28;20053;-77
2022/07/13 05:48:53;;;;;;;9.10;7.20;;;;;;;;;;4992615;28;20133;-77
2022/07/13 05:51:19;;;;;;;10.82;6.93;;;;;;;;;;4992932;28;20050;-75
2022/07/13 05:53:46;;;;;;;14.48;6.75;;;;;;;;;;4991724;28;20026;-76
2022/07/13 05:56:13;;;;;;;7.68;6.50;;;;;;;;;;4978287;28;20032;-83
2022/07/13 05:58:40;;;;;;;7.32;6.55;;;;;;;;;;4989277;28;20138;-78
2022/07/13 06:01:06;;;;;;;14.45;6.57;;;;;;;;;;4989576;28;20113;-75
2022/07/13 06:03:32;;;;;;;8.25;6.82;;;;;;;;;;4990419;28;20068;-76
2022/07/13 06:05:58;;;;;;;11.90;6.95;;;;;;;;;;4973461;28;20393;-75
2022/07/13 06:08:24;;;;;;;8.88;7.03;;;;;;;;;;4986623;28;20034;-82
2022/07/13 06:10:52;;;;;;;13.82;6.63;;;;;;;;;;4985514;28;20070;-75
2022/07/13 06:13:18;;;;;;;8.18;7.30;;;;;;;;;;4989107;28;20061;-76
2022/07/13 06:15:44;;;;;;;8.45;6.57;;;;;;;;;;4989265;28;20118;-76
2022/07/13 06:18:10;;;;;;;12.40;7.30;;;;;;;;;;4989106;28;20545;-76
2022/07/13 06:20:37;;;;;;;14.98;7.03;;;;;;;;;;4991125;28;20498;-75
2022/07/13 06:23:12;;;;;;;10.65;7.35;;;;;;;;;;4976052;28;20374;-79
2022/07/13 06:25:38;;;;;;;11.70;7.07;;;;;;;;;;4975577;28;20526;-74
2022/07/13 06:28:05;;;;;;;11.20;7.22;;;;;;;;;;4984073;28;20387;-74
2022/07/13 06:30:31;;;;;;;16.55;12.30;;;;;;;;;;4988307;28;20074;-76
2022/07/13 06:32:57;;;;;;;9.15;6.78;;;;;;;;;;4988397;28;20038;-71
2022/07/13 06:35:23;;;;;;;7.15;6.32;;;;;;;;;;4987623;28;20037;-72
2022/07/13 06:37:49;;;;;;;7.85;6.45;;;;;;;;;;4980972;28;20034;-72
2022/07/13 06:40:16;;;;;;;9.98;6.20;;;;;;;;;;4990967;28;20035;-71
2022/07/13 06:42:43;;;;;;;9.98;6.53;;;;;;;;;;4989311;28;20612;-72
2022/07/13 06:45:09;;;;;;;11.15;6.50;;;;;;;;;;4992903;28;20022;-72
2022/07/13 06:47:35;;;;;;;9.27;6.43;;;;;;;;;;4966925;28;20034;-72
2022/07/13 06:50:02;;;;;;;8.73;6.07;;;;;;;;;;4990244;28;20081;-71
2022/07/13 06:52:28;;;;;;;10.60;5.70;;;;;;;;;;4987638;28;20042;-72
2022/07/13 06:54:54;;;;;;;8.52;5.95;;;;;;;;;;4992556;28;20045;-70
2022/07/13 06:57:20;;;;;;;10.05;6.25;;;;;;;;;;4989182;28;20354;-71
2022/07/13 06:59:46;;;;;;;10.40;6.00;;;;;;;;;;4992033;28;20482;-70
2022/07/13 07:02:13;;;;;;;9.40;6.18;;;;;;;;;;4985010;28;20026;-71
2022/07/13 07:04:39;;;;;;;8.38;6.43;;;;;;;;;;4981743;28;20030;-71
2022/07/13 07:07:05;;;;;;;8.75;6.60;;;;;;;;;;4980678;28;20105;-71
2022/07/13 07:09:32;;;;;;;10.20;5.68;;;;;;;;;;4989625;28;20121;-71
2022/07/13 07:11:58;;;;;;;6.97;5.93;;;;;;;;;;4993307;28;20038;-71
2022/07/13 07:14:24;;;;;;;8.40;6.05;;;;;;;;;;4968644;28;20034;-75
2022/07/13 07:16:51;;;;;;;9.50;6.28;;;;;;;;;;4989438;28;20038;-77
2022/07/13 07:19:17;;;;;;;10.13;5.63;;;;;;;;;;4990973;28;20372;-77
2022/07/13 07:21:43;;;;;;;12.85;5.90;;;;;;;;;;4979446;28;20550;-75
2022/07/13 07:24:09;;;;;;;8.93;5.18;;;;;;;;;;4989005;28;20033;-74
2022/07/13 07:26:35;;;;;;;5.32;4.43;;;;;;;;;;4984703;28;20041;-73
2022/07/13 07:29:01;;;;;;;10.05;5.50;;;;;;;;;;4993132;28;20042;-73
2022/07/13 07:31:28;;;;;;;8.73;4.47;;;;;;;;;;4985408;28;20034;-74
2022/07/13 07:33:54;;;;;;;7.65;3.65;;;;;;;;;;4958720;28;20034;-73
2022/07/13 07:36:21;;;;;;;6.13;4.53;;;;;;;;;;4992048;28;20092;-77
2022/07/13 07:38:47;;;;;;;16.17;4.97;;;;;;;;;;4990229;28;20474;-77
2022/07/13 07:41:13;;;;;;;6.97;4.47;;;;;;;;;;4991454;28;20471;-74
2022/07/13 07:43:40;;;;;;;9.20;4.28;;;;;;;;;;4991371;28;20053;-73
2022/07/13 07:46:06;;;;;;;8.02;3.47;;;;;;;;;;4991473;28;20050;-73
2022/07/13 07:48:32;;;;;;;6.35;3.35;;;;;;;;;;4989805;28;20039;-74
2022/07/13 07:50:59;;;;;;;8.82;2.88;;;;;;;;;;4998116;28;20605;-74
2022/07/13 07:53:25;;;;;;;7.00;2.85;;;;;;;;;;4991114;28;20046;-74
2022/07/13 07:55:51;;;;;;;7.68;3.47;;;;;;;;;;4992795;28;20058;-74
2022/07/13 07:58:17;;;;;;;7.68;3.05;;;;;;;;;;4991441;28;20098;-74
2022/07/13 08:00:44;;;;;;;5.63;2.67;;;;;;;;;;4987808;28;20046;-78
2022/07/13 08:03:11;;;;;;;6.18;3.22;;;;;;;;;;4984641;28;20490;-74
2022/07/13 08:05:37;;;;;;;5.90;2.60;;;;;;;;;;4975291;28;20030;-74
2022/07/13 08:08:04;;;;;;;10.68;2.83;;;;;;;;;;4992043;28;20061;-75
2022/07/13 08:10:30;;;;;;;9.07;2.70;;;;;;;;;;4982114;28;20122;-75
2022/07/13 08:12:58;;;;;;;3.42;2.20;;;;;;;;;;4990058;28;20118;-75
2022/07/13 08:15:24;;;;;;;4.07;2.20;;;;;;;;;;4991305;28;20512;-74
2022/07/13 08:17:50;;;;;;;8.68;2.70;;;;;;;;;;4988212;28;20449;-75
2022/07/13 08:20:16;;;;;;;2.75;2.00;;;;;;;;;;4991590;28;20030;-74
2022/07/13 08:22:42;;;;;;;9.55;3.00;;;;;;;;;;4987113;28;20042;-74
2022/07/13 08:25:08;;;;;;;9.75;3.10;;;;;;;;;;4987819;28;20513;-74
2022/07/13 08:27:34;;;;;;;8.13;3.10;;;;;;;;;;4991453;28;20047;-77
2022/07/13 08:30:00;;;;;;;7.80;2.75;;;;;;;;;;4990240;28;20042;-74
2022/07/13 08:32:27;;;;;;;4.82;2.50;;;;;;;;;;4986505;28;20057;-74
2022/07/13 08:40:23;;;;;;;6.43;2.20;;;;;;;;;;4992397;28;20180;-74
2022/07/13 08:42:49;;;;;;;8.32;2.38;;;;;;;;;;4989068;28;20034;-74
2022/07/13 08:45:15;;;;;;;6.88;1.90;;;;;;;;;;4985951;28;20030;-74
2022/07/13 08:47:42;;;;;;;5.13;2.22;;;;;;;;;;4991545;28;20034;-74
2022/07/13 08:50:09;;;;;;;5.50;1.70;;;;;;;;;;4973659;28;20038;-74
2022/07/13 08:52:36;;;;;;;2.22;1.42;;;;;;;;;;4987457;28;20073;-74
2022/07/13 08:55:06;;;;;;;2.63;1.33;;;;;;;;;;4987658;28;20497;-74
2022/07/13 08:57:41;;;;;;;3.47;1.55;;;;;;;;;;4991584;28;20394;-74
2022/07/13 09:00:09;;;;;;;10.27;1.35;;;;;;;;;;4991823;28;20065;-74
2022/07/13 09:02:35;;;;;;;5.45;1.45;;;;;;;;;;4986682;28;20610;-74
2022/07/13 09:05:05;;;;;;;3.75;1.60;;;;;;;;;;4990836;28;20237;-75
2022/07/13 09:07:33;;;;;;;5.00;1.33;;;;;;;;;;4990972;28;20486;-74
2022/07/13 09:10:02;;;;;;;3.28;1.40;;;;;;;;;;4985929;28;20102;-74
2022/07/13 09:12:28;;;;;;;3.08;1.60;;;;;;;;;;4988015;28;20122;-74
2022/07/13 09:14:56;;;;;;;4.32;1.40;;;;;;;;;;4972343;28;20034;-74
2022/07/13 09:17:29;;;;;;;5.28;1.20;;;;;;;;;;4991330;28;20030;-74
2022/07/13 09:19:55;;;;;;;6.03;1.48;;;;;;;;;;4990165;28;20045;-74
2022/07/13 09:22:21;;;;;;;4.05;1.10;;;;;;;;;;4969269;28;20062;-74
2022/07/13 09:24:49;;;;;;;4.95;1.30;;;;;;;;;;4985956;28;20066;-74
2022/07/13 09:27:16;;;;;;;2.67;1.27;;;;;;;;;;4977262;28;20081;-75
2022/07/13 09:29:42;;;;;;;2.60;1.10;;;;;;;;;;4986032;28;20406;-75
2022/07/13 09:32:11;;;;;;;4.70;1.70;;;;;;;;;;4988010;28;20035;-74
2022/07/13 09:34:44;;;;;;;3.67;1.25;;;;;;;;;;4991451;28;20069;-74
2022/07/13 09:37:11;;;;;;;2.78;1.50;;;;;;;;;;4982629;28;20197;-74
2022/07/13 09:39:56;;;;;;;6.22;1.40;;;;;;;;;;4989066;28;20031;-74
2022/07/13 09:42:32;;;;;;;2.80;0.88;;;;;;;;;;4987442;28;20034;-77
2022/07/13 09:47:48;;;;;;;2.33;1.17;;;;;;;;;;4985479;28;20096;-74
2022/07/13 09:50:17;;;;;;;2.67;0.73;;;;;;;;;;4988592;28;20478;-74
2022/07/13 09:52:44;;;;;;;1.70;1.00;;;;;;;;;;4968559;28;20030;-74
2022/07/13 09:55:12;;;;;;;1.83;1.02;;;;;;;;;;4990205;28;20030;-74
2022/07/13 09:57:45;;;;;;;2.97;1.30;;;;;;;;;;4985094;28;20030;-74
2022/07/13 10:00:13;;;;;;;2.03;1.30;;;;;;;;;;4978866;28;20116;-74
2022/07/13 10:02:40;;;;;;;5.38;1.55;;;;;;;;;;4989673;28;20053;-74
2022/07/13 10:05:06;;;;;;;6.80;1.38;;;;;;;;;;4989944;28;20528;-74
2022/07/13 10:07:34;;;;;;;2.00;0.98;;;;;;;;;;4967343;28;20049;-74
2022/07/13 10:10:01;;;;;;;2.38;0.90;;;;;;;;;;4989598;28;20486;-75
2022/07/13 10:12:27;;;;;;;3.13;0.93;;;;;;;;;;4989219;28;20038;-74
2022/07/13 10:14:54;;;;;;;4.88;1.20;;;;;;;;;;4989783;28;20505;-74
2022/07/13 10:17:21;;;;;;;3.20;1.02;;;;;;;;;;4984013;28;20062;-74
2022/07/13 10:19:57;;;;;;;4.30;1.05;;;;;;;;;;4990580;28;20226;-76
2022/07/13 10:22:24;;;;;;;5.35;3.38;;;;;;;;;;4974013;28;20112;-74
2022/07/13 10:24:54;;;;;;;7.28;4.07;;;;;;;;;;4989791;28;20027;-76
2022/07/13 10:27:21;;;;;;;6.97;1.60;;;;;;;;;;4990922;28;20454;-74
2022/07/13 10:29:48;;;;;;;1.45;1.10;;;;;;;;;;4989637;28;20426;-73
2022/07/13 10:32:17;;;;;;;5.75;1.30;;;;;;;;;;4964444;28;20105;-75
2022/07/13 10:34:50;;;;;;;2.60;1.20;;;;;;;;;;4992690;28;20031;-73
2022/07/13 10:37:16;;;;;;;2.95;1.42;;;;;;;;;;4990357;28;20144;-74
2022/07/13 10:40:02;;;;;;;3.05;1.10;;;;;;;;;;4972931;28;20038;-74
2022/07/13 10:42:28;;;;;;;4.38;1.65;;;;;;;;;;4991195;28;20089;-74
2022/07/13 10:44:54;;;;;;;3.75;1.50;;;;;;;;;;4985538;28;20057;-74
2022/07/13 10:47:40;;;;;;;2.63;1.48;;;;;;;;;;4987428;28;20042;-75
2022/07/13 10:50:22;;;;;;;2.08;1.10;;;;;;;;;;5001762;28;20053;-74
2022/07/13 10:52:48;;;;;;;2.00;0.95;;;;;;;;;;4997363;28;20393;-74
2022/07/13 10:55:25;;;;;;;2.03;1.20;;;;;;;;;;4979050;28;20022;-73
2022/07/13 10:57:52;;;;;;;1.85;1.10;;;;;;;;;;4990535;28;20522;-73
2022/07/13 11:00:28;;;;;;;3.00;1.50;;;;;;;;;;4990931;28;20042;-73
2022/07/13 11:03:07;;;;;;;2.28;1.02;;;;;;;;;;4987565;28;20057;-74
2022/07/13 11:05:35;;;;;;;2.70;1.33;;;;;;;;;;4975078;28;20042;-73
2022/07/13 11:08:16;;;;;;;3.00;1.17;;;;;;;;;;4987975;28;20065;-73
2022/07/13 11:10:42;;;;;;;2.03;1.23;;;;;;;;;;4990092;28;20081;-73
2022/07/13 11:13:09;;;;;;;3.90;1.20;;;;;;;;;;4989116;28;20034;-73
2022/07/13 11:15:54;;;;;;;3.03;1.17;;;;;;;;;;4993592;28;20034;-73
2022/07/13 11:18:23;;;;;;;2.10;1.20;;;;;;;;;;4971090;28;20078;-73
2022/07/13 11:20:56;;;;;;;2.38;1.35;;;;;;;;;;4989856;28;20506;-72
2022/07/13 11:26:12;;;;;;;11.43;2.00;;;;;;;;;;4989243;28;20121;-72
2022/07/13 11:28:46;;;;;;;10.82;1.48;;;;;;;;;;4988033;28;20402;-73
2022/07/13 11:31:14;;;;;;;2.88;1.00;;;;;;;;;;4983648;28;20042;-74
2022/07/13 11:33:48;;;;;;;1.83;1.17;;;;;;;;;;4988804;28;20399;-73
2022/07/13 11:36:18;;;;;;;6.15;0.98;;;;;;;;;;4991469;28;20390;-73
2022/07/13 11:38:44;;;;;;;3.30;1.40;;;;;;;;;;4989819;28;20038;-74
2022/07/13 11:41:17;;;;;;;2.60;1.08;;;;;;;;;;4992661;28;20034;-73
2022/07/13 11:43:56;;;;;;;3.25;1.00;;;;;;;;;;4991200;28;20467;-73
2022/07/13 11:46:23;;;;;;;3.70;0.88;;;;;;;;;;4981540;28;20113;-73
2022/07/13 11:48:58;;;;;;;3.22;1.38;;;;;;;;;;4964630;28;20023;-73
2022/07/13 11:51:24;;;;;;;2.33;1.08;;;;;;;;;;4989547;28;20137;-73
2022/07/13 11:53:50;;;;;;;5.35;1.23;;;;;;;;;;4987754;28;20081;-72
2022/07/13 11:56:16;;;;;;;1.90;1.08;;;;;;;;;;4987157;28;20114;-73
2022/07/13 11:58:45;;;;;;;6.28;1.40;;;;;;;;;;4982903;28;20058;-72
2022/07/13 12:01:16;;;;;;;8.23;1.48;;;;;;;;;;4969578;28;21691;-72
2022/07/13 12:03:46;;;;;;;30.88;3.75;;;;;;;;;;4985276;28;20205;-73
2022/07/13 12:06:12;;;;;;;5.25;1.70;;;;;;;;;;4991134;28;20474;-73
2022/07/13 12:08:43;;;;;;;25.05;2.47;;;;;;;;;;4989857;28;20430;-73
2022/07/13 12:11:10;;;;;;;3.17;1.53;;;;;;;;;;4971396;28;20035;-73
2022/07/13 12:13:38;;;;;;;7.72;2.15;;;;;;;;;;4972173;28;20042;-73
2022/07/13 12:16:06;;;;;;;4.57;1.73;;;;;;;;;;4991461;28;20024;-73
2022/07/13 12:18:52;;;;;;;5.72;1.90;;;;;;;;;;4987052;28;20046;-73
2022/07/13 12:21:18;;;;;;;4.88;1.98;;;;;;;;;;4990404;28;20046;-72
2022/07/13 12:23:48;;;;;;;3.03;1.60;;;;;;;;;;4986214;28;20113;-72
2022/07/13 12:26:15;;;;;;;3.55;1.90;;;;;;;;;;4981920;28;20050;-72
2022/07/13 12:28:42;;;;;;;7.00;2.40;;;;;;;;;;4988183;28;20049;-71
2022/07/13 12:31:08;;;;;;;4.18;1.27;;;;;;;;;;4993514;28;20030;-71
2022/07/13 12:33:45;;;;;;;4.50;1.40;;;;;;;;;;4990659;28;20382;-72
2022/07/13 12:36:12;;;;;;;7.05;1.88;;;;;;;;;;4987766;28;20027;-73
2022/07/13 12:38:53;;;;;;;6.60;2.72;;;;;;;;;;4983190;28;20044;-72
2022/07/13 12:41:27;;;;;;;8.77;2.42;;;;;;;;;;4986182;28;20042;-73
2022/07/13 12:44:01;;;;;;;21.48;4.68;;;;;;;;;;4985590;28;20073;-72
2022/07/13 12:46:43;;;;;;;5.82;1.98;;;;;;;;;;4969267;28;20391;-72
2022/07/13 12:49:10;;;;;;;5.88;1.77;;;;;;;;;;4987562;28;20121;-72
2022/07/13 12:51:49;;;;;;;3.25;1.35;;;;;;;;;;4989938;28;20034;-71
2022/07/13 12:54:16;;;;;;;4.13;1.25;;;;;;;;;;4992556;28;20581;-71
2022/07/13 12:56:46;;;;;;;4.25;1.52;;;;;;;;;;4994273;28;20034;-72
2022/07/13 12:59:17;;;;;;;5.70;1.95;;;;;;;;;;4985788;28;20459;-71
2022/07/13 13:01:44;;;;;;;5.72;1.70;;;;;;;;;;4967286;28;20030;-72
2022/07/13 13:04:11;;;;;;;3.38;1.35;;;;;;;;;;4978290;28;20089;-72
2022/07/13 13:06:40;;;;;;;6.07;1.48;;;;;;;;;;4978169;28;20304;-72
2022/07/13 13:09:10;;;;;;;8.30;1.73;;;;;;;;;;4970136;28;20026;-73
2022/07/13 13:11:37;;;;;;;7.20;2.03;;;;;;;;;;4986459;28;20049;-74
2022/07/13 13:14:03;;;;;;;4.40;1.60;;;;;;;;;;4981161;28;20038;-73
2022/07/13 13:16:29;;;;;;;5.68;2.00;;;;;;;;;;4968202;28;20124;-73
2022/07/13 13:18:55;;;;;;;4.43;1.30;;;;;;;;;;4974766;28;20061;-73
2022/07/13 13:21:21;;;;;;;5.47;2.00;;;;;;;;;;4979995;28;20074;-74
2022/07/13 13:23:47;;;;;;;3.50;1.45;;;;;;;;;;4984747;28;20038;-73
2022/07/13 13:26:13;;;;;;;5.38;1.33;;;;;;;;;;4955169;28;20409;-73
2022/07/13 13:31:24;;;;;;;3.30;1.27;;;;;;;;;;4993885;28;20088;-73
2022/07/13 13:33:50;;;;;;;4.82;1.27;;;;;;;;;;4989523;28;20041;-73
2022/07/13 13:36:16;;;;;;;7.35;2.22;;;;;;;;;;4974691;28;20081;-74
2022/07/13 13:38:43;;;;;;;10.15;1.52;;;;;;;;;;4991451;28;20030;-74
2022/07/13 13:41:10;;;;;;;5.13;1.80;;;;;;;;;;4987662;28;20070;-73
2022/07/13 13:43:36;;;;;;;4.93;1.38;;;;;;;;;;4993445;28;20073;-73
2022/07/13 13:46:03;;;;;;;5.40;1.55;;;;;;;;;;4992899;28;20057;-73
2022/07/13 13:48:29;;;;;;;7.65;2.08;;;;;;;;;;4989261;28;20165;-73
2022/07/13 13:50:55;;;;;;;11.70;1.65;;;;;;;;;;4988186;28;20125;-73
2022/07/13 13:53:22;;;;;;;8.02;1.80;;;;;;;;;;4993828;28;20045;-74
2022/07/13 13:55:48;;;;;;;7.13;1.40;;;;;;;;;;4990333;28;20054;-73
2022/07/13 13:58:14;;;;;;;6.50;1.58;;;;;;;;;;4993470;28;20061;-73
2022/07/13 14:00:40;;;;;;;6.60;1.67;;;;;;;;;;4985295;28;20029;-74
2022/07/13 14:03:07;;;;;;;5.47;1.15;;;;;;;;;;4971417;28;20030;-73
2022/07/13 14:05:33;;;;;;;3.70;1.35;;;;;;;;;;4994771;28;20057;-73
2022/07/13 14:08:00;;;;;;;6.05;1.65;;;;;;;;;;4990472;28;20475;-73
2022/07/13 14:10:26;;;;;;;6.68;1.63;;;;;;;;;;4979585;28;20702;-73
2022/07/13 14:12:52;;;;;;;15.93;4.43;;;;;;;;;;4954585;28;20097;-74
2022/07/13 14:15:19;;;;;;;5.13;1.40;;;;;;;;;;4992529;28;20902;-74
2022/07/13 14:17:45;;;;;;;6.28;1.70;;;;;;;;;;4992224;28;20034;-75
2022/07/13 14:20:11;;;;;;;5.82;1.50;;;;;;;;;;4990822;28;20042;-74
2022/07/13 14:22:37;;;;;;;10.95;6.00;;;;;;;;;;4986473;28;20051;-73
2022/07/13 14:25:04;;;;;;;9.27;1.90;;;;;;;;;;4990388;28;20108;-73
2022/07/13 14:27:30;;;;;;;7.07;1.75;;;;;;;;;;4992240;28;20034;-73
2022/07/13 14:29:56;;;;;;;5.57;1.67;;;;;;;;;;4993502;28;20026;-73
2022/07/13 14:32:22;;;;;;;13.52;2.25;;;;;;;;;;4976426;28;20037;-74
2022/07/13 14:34:49;;;;;;;8.43;1.75;;;;;;;;;;4976721;28;20437;-73
2022/07/13 14:37:23;;;;;;;6.32;1.58;;;;;;;;;;4992143;28;20030;-73
2022/07/13 14:39:50;;;;;;;8.75;1.98;;;;;;;;;;4992974;28;20509;-73
2022/07/13 14:42:17;;;;;;;11.27;3.20;;;;;;;;;;4991931;28;20050;-73
2022/07/13 14:44:43;;;;;;;8.98;1.73;;;;;;;;;;4993545;28;20038;-73
2022/07/13 14:47:09;;;;;;;9.07;1.65;;;;;;;;;;4983988;28;20034;-73
2022/07/13 14:49:35;;;;;;;10.73;1.70;;;;;;;;;;4986930;28;20034;-72
2022/07/13 14:52:01;;;;;;;7.97;1.58;;;;;;;;;;4990408;28;20121;-73
2022/07/13 14:54:27;;;;;;;9.27;1.88;;;;;;;;;;4967501;28;20035;-73